Time;durP1;ratioP1;P1;durP2;ratioP2;P2;SDS_P1;SDS_P2;PMS_P1;PMS_P2;Temp;Humidity;BMP_temperature;BMP_pressure;BME280_temperature;BME280_humidity;BME280_pressure;Samples;Min_cycle;Max_cycle;Signal;HPM_P1;HPM_P2
2023/06/14 00:00:31;;;;;;;;;20.25;18.75;;;;;26.48;28.64;100608.81;5034567;28;45438;-61
2023/06/14 00:02:56;;;;;;;;;18.75;18.25;;;;;26.46;28.95;100616.13;5036914;28;45451;-61
2023/06/14 00:05:23;;;;;;;;;18.50;17.75;;;;;26.43;28.81;100613.72;5036779;28;45507;-61
2023/06/14 00:07:49;;;;;;;;;19.00;18.00;;;;;26.36;28.78;100610.66;5036508;28;45443;-61
2023/06/14 00:10:15;;;;;;;;;20.25;18.50;;;;;26.35;29.14;100605.41;5032962;28;45546;-61
2023/06/14 00:12:41;;;;;;;;;21.25;19.75;;;;;26.32;28.59;100613.75;5034194;28;45340;-61
2023/06/14 00:15:07;;;;;;;;;23.25;18.00;;;;;26.30;29.22;100607.63;5036643;28;46384;-61
2023/06/14 00:17:32;;;;;;;;;23.50;19.75;;;;;26.26;29.03;100612.41;5037050;28;45388;-62
2023/06/14 00:19:59;;;;;;;;;18.25;18.25;;;;;26.21;28.73;100615.50;5036531;28;45576;-62
2023/06/14 00:22:25;;;;;;;;;22.50;20.25;;;;;26.19;29.55;100611.19;5032817;28;45551;-62
2023/06/14 00:24:51;;;;;;;;;23.00;20.00;;;;;26.17;29.50;100615.88;5036149;28;46699;-62
2023/06/14 00:27:16;;;;;;;;;21.50;18.75;;;;;26.14;29.28;100614.28;5036795;28;45387;-62
2023/06/14 00:29:42;;;;;;;;;18.25;17.75;;;;;26.11;29.67;100610.00;5029416;28;46011;-62
2023/06/14 00:32:07;;;;;;;;;17.50;16.00;;;;;26.07;29.32;100613.06;5019269;28;45492;-62
2023/06/14 00:34:33;;;;;;;;;20.00;17.50;;;;;26.04;29.63;100613.31;5036361;28;45395;-62
2023/06/14 00:36:59;;;;;;;;;17.75;16.00;;;;;26.01;29.73;100613.53;5036470;28;45444;-62
2023/06/14 00:39:24;;;;;;;;;20.00;16.25;;;;;25.96;29.27;100620.16;5036617;28;45438;-62
2023/06/14 00:41:49;;;;;;;;;20.25;20.25;;;;;25.91;29.29;100619.69;5036119;28;45485;-62
2023/06/14 00:44:16;;;;;;;;;18.25;16.50;;;;;25.89;29.43;100624.31;5035986;28;46546;-62
2023/06/14 00:46:42;;;;;;;;;21.00;17.00;;;;;25.86;29.91;100621.91;5036575;28;45805;-62
2023/06/14 00:49:08;;;;;;;;;18.75;17.50;;;;;25.82;29.51;100617.72;5036581;28;45524;-62
2023/06/14 00:51:34;;;;;;;;;18.50;17.00;;;;;25.79;30.19;100618.81;5036607;28;45461;-62
2023/06/14 00:54:00;;;;;;;;;18.25;16.00;;;;;25.76;29.74;100615.53;5036103;28;45234;-62
2023/06/14 00:56:27;;;;;;;;;18.75;17.50;;;;;25.74;29.87;100620.19;5032170;28;45468;-62
2023/06/14 00:58:53;;;;;;;;;18.50;17.50;;;;;25.72;29.87;100624.81;5038951;28;45262;-62
2023/06/14 01:01:18;;;;;;;;;23.25;20.25;;;;;25.68;29.97;100626.06;5037412;28;45326;-62
2023/06/14 01:03:44;;;;;;;;;20.75;19.75;;;;;25.61;29.87;100623.84;5040701;28;46018;-61
2023/06/14 01:06:26;;;;;;;;;18.25;17.75;;;;;25.61;30.04;100623.84;5039745;28;45324;-61
2023/06/14 01:09:05;;;;;;;;;19.75;17.50;;;;;25.57;30.61;100624.22;5039469;28;45304;-61
2023/06/14 01:11:36;;;;;;;;;21.00;18.00;;;;;25.54;30.36;100627.16;5039574;28;45609;-61
2023/06/14 01:14:03;;;;;;;;;20.50;18.00;;;;;25.51;30.45;100625.56;5036115;28;45539;-61
2023/06/14 01:16:29;;;;;;;;;20.00;18.75;;;;;25.47;30.66;100624.09;5039303;28;45438;-61
2023/06/14 01:18:56;;;;;;;;;19.00;18.50;;;;;25.45;30.05;100626.06;5039126;28;45645;-61
2023/06/14 01:21:23;;;;;;;;;18.00;16.50;;;;;25.43;30.74;100625.31;5039350;28;45434;-61
2023/06/14 01:23:52;;;;;;;;;18.25;17.25;;;;;25.41;30.21;100628.13;5038880;28;45625;-61
2023/06/14 01:26:19;;;;;;;;;20.25;19.50;;;;;25.38;30.57;100627.50;5023020;28;45321;-61
2023/06/14 01:28:48;;;;;;;;;18.25;18.25;;;;;25.35;30.78;100622.34;5038894;28;45476;-61
2023/06/14 01:31:17;;;;;;;;;17.75;16.50;;;;;25.30;30.71;100626.25;5038616;28;45340;-61
2023/06/14 01:33:44;;;;;;;;;20.00;17.50;;;;;25.30;31.01;100626.25;5038225;28;46180;-61
2023/06/14 01:36:09;;;;;;;;;19.00;17.25;;;;;25.25;30.96;100627.59;5038940;28;45339;-61
2023/06/14 01:38:37;;;;;;;;;20.00;15.25;;;;;25.20;30.70;100625.25;5036745;28;45467;-61
2023/06/14 01:41:03;;;;;;;;;18.50;18.50;;;;;25.17;30.67;100625.50;5034004;28;45656;-61
2023/06/14 01:43:31;;;;;;;;;22.25;18.25;;;;;25.13;30.64;100627.56;5038191;28;45718;-61
2023/06/14 01:45:57;;;;;;;;;16.25;16.25;;;;;25.11;31.17;100624.13;5038522;28;45445;-61
2023/06/14 01:48:23;;;;;;;;;20.00;20.00;;;;;25.09;31.01;100628.78;5038733;28;45485;-61
2023/06/14 01:50:52;;;;;;;;;21.00;18.50;;;;;25.06;30.82;100630.84;5038629;28;45317;-61
2023/06/14 01:53:17;;;;;;;;;17.50;17.00;;;;;25.02;31.36;100627.53;5038897;28;46411;-61
2023/06/14 01:55:43;;;;;;;;;18.50;17.50;;;;;25.01;31.45;100627.66;5038786;28;45403;-61
2023/06/14 01:58:10;;;;;;;;;18.75;17.00;;;;;24.99;30.73;100627.75;5039209;28;45453;-61
2023/06/14 02:00:35;;;;;;;;;18.50;17.75;;;;;24.96;31.17;100633.38;5036869;28;45449;-61
2023/06/14 02:03:01;;;;;;;;;19.75;18.50;;;;;24.91;31.46;100625.66;5038483;28;46276;-62
2023/06/14 02:05:27;;;;;;;;;20.00;19.00;;;;;24.86;31.52;100617.09;5038517;28;45464;-61
2023/06/14 02:07:55;;;;;;;;;20.25;17.75;;;;;24.86;31.76;100625.16;5033229;28;45423;-61
2023/06/14 02:10:20;;;;;;;;;22.75;21.75;;;;;24.82;31.56;100629.91;5037466;28;45319;-61
2023/06/14 02:12:46;;;;;;;;;21.75;19.00;;;;;24.81;31.29;100624.66;5035313;28;45343;-61
2023/06/14 02:15:16;;;;;;;;;22.25;20.00;;;;;24.79;31.59;100634.66;5038608;28;45612;-62
2023/06/14 02:17:42;;;;;;;;;15.50;15.50;;;;;24.76;31.40;100632.22;5038741;28;45546;-62
2023/06/14 02:20:09;;;;;;;;;19.75;18.75;;;;;24.74;31.64;100634.16;5039010;28;45417;-61
2023/06/14 02:22:34;;;;;;;;;22.75;21.25;;;;;24.71;31.51;100629.03;5038651;28;46154;-62
2023/06/14 02:25:00;;;;;;;;;18.25;16.25;;;;;24.69;31.34;100633.66;5038035;28;45355;-61
2023/06/14 02:27:25;;;;;;;;;21.75;19.50;;;;;24.67;31.90;100642.69;5038540;28;46526;-62
2023/06/14 02:29:50;;;;;;;;;25.50;23.00;;;;;24.65;31.78;100646.47;5038013;28;45495;-62
2023/06/14 02:32:16;;;;;;;;;21.50;20.25;;;;;24.62;31.57;100647.50;5038189;28;45971;-61
2023/06/14 02:34:42;;;;;;;;;19.75;19.75;;;;;24.55;31.75;100634.66;5038104;28;48816;-61
2023/06/14 02:37:08;;;;;;;;;19.50;19.50;;;;;24.58;31.56;100639.78;5038590;28;45478;-61
2023/06/14 02:39:33;;;;;;;;;25.75;23.75;;;;;24.54;31.89;100636.50;5038221;28;45608;-61
2023/06/14 02:41:58;;;;;;;;;20.75;19.00;;;;;24.50;31.96;100638.56;5037856;28;45486;-61
2023/06/14 02:44:27;;;;;;;;;22.75;22.75;;;;;24.47;32.10;100643.28;5037543;28;51264;-62
2023/06/14 02:46:52;;;;;;;;;19.75;18.50;;;;;24.44;32.03;100646.19;5038035;28;45371;-62
2023/06/14 02:49:18;;;;;;;;;23.00;21.25;;;;;24.41;31.76;100644.59;5038144;28;45596;-61
2023/06/14 02:51:43;;;;;;;;;18.75;17.75;;;;;24.38;32.13;100649.34;5037279;28;50512;-61
2023/06/14 02:54:08;;;;;;;;;22.25;22.25;;;;;24.37;32.30;100651.19;5029719;28;45706;-61
2023/06/14 02:56:34;;;;;;;;;21.75;19.50;;;;;24.33;32.50;100641.63;5029132;28;45506;-61
2023/06/14 02:59:00;;;;;;;;;20.25;19.75;;;;;24.32;32.24;100651.50;5042903;28;45238;-61
2023/06/14 03:01:34;;;;;;;;;20.00;20.00;;;;;24.30;32.28;100650.78;5017234;28;46831;-61
2023/06/14 03:04:03;;;;;;;;;18.75;16.75;;;;;24.29;32.12;100649.06;5028190;28;45203;-61
2023/06/14 03:06:31;;;;;;;;;16.25;16.25;;;;;24.27;32.66;100659.03;5046666;28;45406;-61
2023/06/14 03:08:59;;;;;;;;;24.75;23.25;;;;;24.24;32.36;100664.66;5048977;28;45478;-61
2023/06/14 03:11:25;;;;;;;;;20.50;20.25;;;;;24.23;32.64;100662.94;5028987;28;46195;-61
2023/06/14 03:13:51;;;;;;;;;22.00;19.25;;;;;24.19;32.68;100666.81;5043145;28;45456;-61
2023/06/14 03:16:19;;;;;;;;;17.50;17.25;;;;;24.10;32.52;100648.69;5054148;28;46661;-61
2023/06/14 03:18:45;;;;;;;;;20.00;18.50;;;;;24.13;32.44;100669.94;5049852;28;45325;-61
2023/06/14 03:21:11;;;;;;;;;21.00;21.00;;;;;24.07;32.98;100665.03;5045593;28;45340;-61
2023/06/14 03:23:36;;;;;;;;;24.00;24.00;;;;;24.03;32.44;100672.44;5050465;28;45405;-61
2023/06/14 03:26:02;;;;;;;;;19.75;19.75;;;;;24.02;32.73;100676.94;5053704;28;45460;-61
2023/06/14 03:28:27;;;;;;;;;20.50;20.50;;;;;23.99;32.87;100682.53;5049807;28;45370;-61
2023/06/14 03:30:52;;;;;;;;;21.00;20.75;;;;;23.95;32.75;100683.72;5028861;28;47166;-62
2023/06/14 03:33:18;;;;;;;;;27.50;24.25;;;;;23.93;32.90;100691.00;5050817;28;45532;-61
2023/06/14 03:35:43;;;;;;;;;27.50;21.75;;;;;23.91;32.93;100695.66;5053791;28;45863;-61
2023/06/14 03:38:09;;;;;;;;;21.25;20.00;;;;;23.88;33.08;100689.59;5049994;28;45324;-61
2023/06/14 03:40:34;;;;;;;;;24.00;24.00;;;;;23.87;33.07;100699.47;5046580;28;45950;-61
2023/06/14 03:43:00;;;;;;;;;20.00;18.00;;;;;23.84;33.29;100703.22;5028836;28;45515;-61
2023/06/14 03:45:25;;;;;;;;;18.75;18.00;;;;;23.85;33.03;100706.78;5036374;28;45316;-62
2023/06/14 03:47:51;;;;;;;;;22.25;20.75;;;;;23.80;33.10;100700.88;5022339;28;45530;-61
2023/06/14 03:50:18;;;;;;;;;22.75;21.00;;;;;23.81;33.13;100707.94;5053406;28;45374;-62
2023/06/14 03:52:43;;;;;;;;;25.00;23.25;;;;;23.76;33.49;100702.03;5050393;28;45382;-62
2023/06/14 03:55:09;;;;;;;;;21.50;21.50;;;;;23.77;33.14;100712.69;5046374;28;45432;-62
2023/06/14 03:57:38;;;;;;;;;21.00;20.75;;;;;23.75;33.44;100714.63;5049973;28;45397;-62
2023/06/14 04:00:05;;;;;;;;;26.00;24.00;;;;;23.73;33.21;100711.16;5051468;28;45423;-62
2023/06/14 04:02:31;;;;;;;;;19.25;16.00;;;;;23.69;33.52;100713.19;5028625;28;45222;-62
2023/06/14 04:04:56;;;;;;;;;21.75;20.75;;;;;23.67;33.32;100709.78;5053180;28;45201;-62
2023/06/14 04:07:22;;;;;;;;;22.00;19.25;;;;;23.67;33.60;100708.91;5032527;28;45238;-62
2023/06/14 04:09:49;;;;;;;;;22.75;21.25;;;;;23.67;33.75;100706.22;5023426;28;48318;-62
2023/06/14 04:12:14;;;;;;;;;2.75;1.00;;;;;23.63;33.42;100708.28;5051284;28;45413;-62
2023/06/14 04:14:40;;;;;;;;;23.75;20.50;;;;;23.62;33.74;100711.06;5035813;28;45308;-62
2023/06/14 04:17:06;;;;;;;;;19.00;18.00;;;;;23.61;33.71;100710.22;5048644;28;45262;-62
2023/06/14 04:19:31;;;;;;;;;22.00;22.00;;;;;23.60;33.78;100711.19;5045357;28;45293;-62
2023/06/14 04:21:59;;;;;;;;;21.25;19.25;;;;;23.57;33.84;100714.09;5051157;28;45374;-62
2023/06/14 04:24:25;;;;;;;;;21.75;21.50;;;;;23.53;33.84;100707.19;5053125;28;46567;-62
2023/06/14 04:26:51;;;;;;;;;22.25;22.00;;;;;23.55;34.02;100718.69;5048806;28;45235;-62
2023/06/14 04:29:19;;;;;;;;;20.50;20.50;;;;;23.55;33.73;100726.72;5045829;28;45479;-62
2023/06/14 04:31:45;;;;;;;;;25.00;23.25;;;;;23.54;33.97;100727.69;5049578;28;45330;-62
2023/06/14 04:34:15;;;;;;;;;27.50;22.50;;;;;23.49;34.18;100730.69;5055728;28;45232;-62
2023/06/14 04:36:43;;;;;;;;;19.25;17.75;;;;;23.48;33.99;100730.78;5045353;28;45213;-62
2023/06/14 04:39:08;;;;;;;;;23.25;20.75;;;;;23.46;34.33;100730.03;5048807;28;45495;-62
2023/06/14 04:41:34;;;;;;;;;23.00;22.50;;;;;23.44;33.91;100738.19;5051909;28;45400;-62
2023/06/14 04:44:01;;;;;;;;;24.50;20.75;;;;;23.45;34.09;100739.06;5039733;28;45322;-62
2023/06/14 04:46:31;;;;;;;;;23.00;20.25;;;;;23.44;34.08;100740.03;5041718;28;45349;-62
2023/06/14 04:48:57;;;;;;;;;21.75;21.00;;;;;23.41;34.23;100734.84;5056069;28;46344;-62
2023/06/14 04:51:29;;;;;;;;;26.00;21.00;;;;;23.40;34.09;100733.16;5055100;28;45190;-62
2023/06/14 04:53:56;;;;;;;;;21.50;21.25;;;;;23.41;34.71;100734.84;5049531;28;45294;-62
2023/06/14 04:56:23;;;;;;;;;22.50;20.25;;;;;23.40;34.56;100739.38;5048500;28;45466;-62
2023/06/14 04:58:48;;;;;;;;;23.50;22.00;;;;;23.41;34.18;100740.22;5042576;28;47297;-62
2023/06/14 05:01:13;;;;;;;;;25.50;21.00;;;;;23.38;34.56;100741.28;5033750;28;45320;-62
2023/06/14 05:03:39;;;;;;;;;23.75;22.25;;;;;23.37;34.36;100743.13;5045316;28;45318;-62
2023/06/14 05:06:04;;;;;;;;;24.50;22.50;;;;;23.38;34.27;100741.28;5045869;28;47549;-62
2023/06/14 05:08:29;;;;;;;;;25.50;19.75;;;;;23.37;34.65;100744.97;5045283;28;45628;-62
2023/06/14 05:10:55;;;;;;;;;24.50;22.00;;;;;23.35;34.48;100746.88;5032973;28;46642;-62
2023/06/14 05:13:22;;;;;;;;;21.00;20.25;;;;;23.36;34.77;100757.47;5047680;28;47102;-62
2023/06/14 05:15:48;;;;;;;;;25.00;23.50;;;;;23.35;34.49;100750.41;5054594;28;45358;-62
2023/06/14 05:18:14;;;;;;;;;24.75;22.25;;;;;23.36;34.73;100753.97;5047768;28;45408;-62
2023/06/14 05:20:41;;;;;;;;;23.00;22.00;;;;;23.35;34.94;100753.06;5050430;28;45185;-62
2023/06/14 05:23:07;;;;;;;;;26.75;23.25;;;;;23.35;34.64;100754.91;5055834;28;45435;-61
2023/06/14 05:25:32;;;;;;;;;21.50;20.50;;;;;23.36;34.62;100748.59;5054776;28;45258;-62
2023/06/14 05:27:57;;;;;;;;;23.00;23.00;;;;;23.34;34.83;100740.63;5048928;28;46147;-62
2023/06/14 05:30:23;;;;;;;;;22.00;20.75;;;;;23.37;34.72;100751.16;5049117;28;57980;-62
2023/06/14 05:32:48;;;;;;;;;23.50;23.25;;;;;23.40;34.70;100754.59;5055508;28;45375;-62
2023/06/14 05:35:14;;;;;;;;;21.25;20.25;;;;;23.40;34.87;100760.81;5054658;28;45305;-61
2023/06/14 05:37:39;;;;;;;;;25.50;23.75;;;;;23.41;34.86;100767.03;5030795;28;48345;-62
2023/06/14 05:40:05;;;;;;;;;22.50;21.00;;;;;23.39;34.91;100758.25;5049664;28;45431;-62
2023/06/14 05:42:31;;;;;;;;;27.00;22.75;;;;;23.42;34.86;100763.38;5023991;28;45457;-62
2023/06/14 05:44:57;;;;;;;;;24.50;19.25;;;;;23.44;34.84;100766.84;5041597;28;45342;-62
2023/06/14 05:47:22;;;;;;;;;42.50;33.00;;;;;23.43;35.00;100765.13;5030146;28;46238;-62
2023/06/14 05:49:48;;;;;;;;;24.25;22.00;;;;;23.46;34.92;100764.88;5049167;28;45333;-62
2023/06/14 05:52:13;;;;;;;;;22.25;20.00;;;;;23.47;34.46;100767.50;5055436;28;45469;-61
2023/06/14 05:54:38;;;;;;;;;16.00;16.00;;;;;23.46;34.98;100757.72;5055389;28;45228;-61
2023/06/14 05:57:06;;;;;;;;;23.00;21.25;;;;;23.48;34.43;100762.97;5024139;28;45732;-61
2023/06/14 05:59:31;;;;;;;;;22.00;20.00;;;;;23.47;34.80;100759.44;5037124;28;45194;-61
2023/06/14 06:01:57;;;;;;;;;19.50;18.75;;;;;23.50;34.57;100763.75;5028463;28;45286;-61
2023/06/14 06:04:23;;;;;;;;;20.25;18.50;;;;;23.51;34.77;100769.00;5052562;28;45213;-61
2023/06/14 06:06:48;;;;;;;;;23.25;20.50;;;;;23.52;34.67;100769.84;5036904;28;46039;-61
2023/06/14 06:09:14;;;;;;;;;24.50;19.75;;;;;23.52;34.77;100769.84;5023565;28;45313;-61
2023/06/14 06:11:40;;;;;;;;;22.00;19.75;;;;;23.55;34.78;100761.59;5055067;28;45434;-61
2023/06/14 06:14:05;;;;;;;;;19.75;18.75;;;;;23.57;34.75;100778.44;5020460;28;45307;-61
2023/06/14 06:16:31;;;;;;;;;18.00;15.50;;;;;23.59;34.56;100786.38;5020186;28;47271;-62
2023/06/14 06:18:56;;;;;;;;;15.00;14.25;;;;;23.60;34.45;100780.06;5032788;28;45329;-60
2023/06/14 06:21:21;;;;;;;;;21.75;19.00;;;;;23.62;34.63;100780.78;5054866;28;45319;-60
2023/06/14 06:23:47;;;;;;;;;20.75;17.75;;;;;23.64;34.54;100778.88;5052755;28;45326;-62
2023/06/14 06:26:12;;;;;;;;;19.25;18.25;;;;;23.64;34.71;100778.88;5047836;28;46269;-60
2023/06/14 06:28:37;;;;;;;;;19.25;16.50;;;;;23.68;34.49;100786.63;5031839;28;45389;-60
2023/06/14 06:31:03;;;;;;;;;16.75;16.75;;;;;23.69;34.43;100788.31;5054882;28;45495;-60
2023/06/14 06:33:28;;;;;;;;;17.25;15.50;;;;;23.70;34.50;100787.34;5052516;28;45178;-62
2023/06/14 06:35:53;;;;;;;;;15.00;14.75;;;;;23.74;34.18;100789.84;5047852;28;45344;-61
2023/06/14 06:38:19;;;;;;;;;15.25;15.25;;;;;23.76;34.18;100793.25;5049902;28;47916;-60
2023/06/14 06:40:44;;;;;;;;;22.00;16.50;;;;;23.79;34.27;100796.59;5054372;28;45455;-60
2023/06/14 06:43:13;;;;;;;;;16.00;16.00;;;;;23.81;34.28;100796.47;5033949;28;45262;-60
2023/06/14 06:45:38;;;;;;;;;16.00;15.25;;;;;23.83;34.26;100791.88;5039455;28;45420;-61
2023/06/14 06:48:04;;;;;;;;;15.75;15.75;;;;;23.87;34.22;100798.72;5035105;28;45341;-61
2023/06/14 06:50:30;;;;;;;;;15.50;15.25;;;;;23.89;34.41;100802.19;5047760;28;45320;-60
2023/06/14 06:52:55;;;;;;;;;20.25;17.75;;;;;23.92;34.08;100809.19;5048968;28;45431;-61
2023/06/14 06:55:21;;;;;;;;;18.00;15.00;;;;;23.93;34.28;100801.03;5052185;28;47314;-61
2023/06/14 06:57:46;;;;;;;;;15.00;15.00;;;;;23.98;34.15;100803.41;5053186;28;45316;-63
2023/06/14 07:00:12;;;;;;;;;19.50;17.75;;;;;24.01;34.14;100808.53;5041891;28;45229;-64
2023/06/14 07:02:38;;;;;;;;;21.00;20.00;;;;;24.02;34.01;100805.78;5022421;28;45861;-62
2023/06/14 07:05:04;;;;;;;;;19.75;18.25;;;;;24.07;34.23;100807.25;5037373;28;46039;-61
2023/06/14 07:07:29;;;;;;;;;20.00;16.75;;;;;24.10;33.77;100817.78;5024931;28;45801;-61
2023/06/14 07:09:57;;;;;;;;;15.25;14.75;;;;;24.13;34.00;100822.94;5029345;28;45238;-60
2023/06/14 07:12:23;;;;;;;;;17.75;16.50;;;;;24.12;34.23;100815.84;5037176;28;45471;-63
2023/06/14 07:14:48;;;;;;;;;15.75;15.50;;;;;24.18;34.00;100827.00;5035309;28;45974;-60
2023/06/14 07:17:14;;;;;;;;;19.00;17.50;;;;;24.20;33.60;100824.22;5030003;28;45322;-60
2023/06/14 07:19:39;;;;;;;;;18.50;18.25;;;;;24.22;34.15;100824.97;5038333;28;45320;-60
2023/06/14 07:22:05;;;;;;;;;15.25;15.00;;;;;24.29;33.96;100828.09;5028462;28;45581;-61
2023/06/14 07:24:30;;;;;;;;;18.75;17.50;;;;;24.30;34.22;100832.47;5037630;28;45391;-60
2023/06/14 07:26:56;;;;;;;;;18.75;17.50;;;;;24.35;34.00;100833.00;5037768;28;45366;-60
2023/06/14 07:29:21;;;;;;;;;17.75;15.75;;;;;24.38;33.50;100835.50;5039255;28;45304;-61
2023/06/14 07:31:47;;;;;;;;;16.25;15.75;;;;;24.42;34.15;100836.13;5037187;28;45446;-61
2023/06/14 07:34:12;;;;;;;;;16.25;16.25;;;;;24.47;33.96;100842.03;5037670;28;45392;-60
2023/06/14 07:36:38;;;;;;;;;16.50;15.25;;;;;24.49;33.82;100842.78;5037551;28;45458;-62
2023/06/14 07:39:05;;;;;;;;;16.25;12.50;;;;;24.53;34.02;100840.72;5037469;28;45467;-62
2023/06/14 07:41:31;;;;;;;;;19.00;17.25;;;;;24.58;34.00;100849.31;5037568;28;45539;-63
2023/06/14 07:43:56;;;;;;;;;21.25;17.00;;;;;24.60;33.70;100845.56;5029079;28;47448;-64
2023/06/14 07:46:21;;;;;;;;;17.00;16.50;;;;;24.65;33.66;100845.25;5040472;28;46406;-63
2023/06/14 07:48:47;;;;;;;;;18.00;17.00;;;;;24.67;33.88;100844.16;5027437;28;45573;-63
2023/06/14 07:51:12;;;;;;;;;14.75;14.75;;;;;24.72;33.96;100849.22;5037051;28;54067;-64
2023/06/14 07:53:37;;;;;;;;;15.75;15.50;;;;;24.76;33.46;100852.53;5038415;28;46647;-64
2023/06/14 07:56:03;;;;;;;;;18.75;17.50;;;;;24.80;33.61;100860.28;5048604;28;45660;-64
2023/06/14 07:58:28;;;;;;;;;20.25;18.75;;;;;24.81;33.31;100850.38;5036854;28;45484;-64
2023/06/14 08:00:54;;;;;;;;;21.00;17.50;;;;;24.85;33.56;100851.84;5033349;28;45569;-63
2023/06/14 08:03:20;;;;;;;;;18.50;14.75;;;;;24.91;33.82;100859.47;5035430;28;45580;-64
2023/06/14 08:05:45;;;;;;;;;13.25;13.25;;;;;24.93;33.51;100852.19;5035907;28;45631;-60
2023/06/14 08:08:10;;;;;;;;;16.25;15.25;;;;;24.99;33.09;100858.91;5036387;28;45543;-60
2023/06/14 08:10:36;;;;;;;;;18.50;17.00;;;;;25.01;33.33;100864.19;5035299;28;46382;-61
2023/06/14 08:13:01;;;;;;;;;17.50;13.75;;;;;25.06;33.31;100859.34;5024740;28;46177;-61
2023/06/14 08:15:26;;;;;;;;;17.00;17.00;;;;;25.08;33.69;100854.69;5036576;28;45568;-61
2023/06/14 08:17:52;;;;;;;;;13.75;13.25;;;;;25.14;33.63;100863.19;5037098;28;45398;-61
2023/06/14 08:20:17;;;;;;;;;18.25;17.00;;;;;25.20;33.11;100859.16;5036685;28;45308;-60
2023/06/14 08:22:43;;;;;;;;;17.25;16.00;;;;;25.25;33.36;100870.44;5037031;28;45484;-61
2023/06/14 08:25:09;;;;;;;;;17.25;14.75;;;;;25.29;33.13;100871.06;5036940;28;45326;-61
2023/06/14 08:27:35;;;;;;;;;15.50;14.75;;;;;25.32;33.27;100870.84;5035719;28;45458;-61
2023/06/14 08:30:02;;;;;;;;;17.25;16.25;;;;;25.36;33.50;100868.75;5037692;28;45494;-61
2023/06/14 08:32:27;;;;;;;;;17.25;16.00;;;;;25.41;33.04;100869.34;5036060;28;45309;-62
2023/06/14 08:34:52;;;;;;;;;14.75;13.50;;;;;25.38;33.35;100856.94;5036535;28;45543;-61
2023/06/14 08:37:17;;;;;;;;;17.75;16.00;;;;;25.46;33.06;100870.69;5036362;28;45227;-61
2023/06/14 08:39:43;;;;;;;;;18.00;17.00;;;;;25.51;33.54;100867.66;5036849;28;45273;-61
2023/06/14 08:42:10;;;;;;;;;14.00;14.00;;;;;25.53;32.95;100865.69;5035950;28;47694;-61
2023/06/14 08:44:35;;;;;;;;;16.00;14.25;;;;;25.58;33.39;100862.66;5025123;28;45658;-61
2023/06/14 08:47:03;;;;;;;;;18.00;16.25;;;;;25.62;32.88;100861.44;5041213;28;45380;-61
2023/06/14 08:49:30;;;;;;;;;15.25;14.75;;;;;25.68;32.90;100858.28;5050283;28;45317;-60
2023/06/14 08:52:00;;;;;;;;;19.25;17.00;;;;;25.71;33.31;100868.84;5039662;28;45357;-60
2023/06/14 08:54:35;;;;;;;;;16.25;16.25;;;;;25.75;32.80;100867.63;5030810;28;45419;-60
2023/06/14 08:57:02;;;;;;;;;18.50;16.50;;;;;25.80;33.19;100868.13;5052181;28;45340;-60
2023/06/14 08:59:28;;;;;;;;;13.25;13.25;;;;;25.84;32.75;100867.91;5050035;28;45309;-61
2023/06/14 09:01:54;;;;;;;;;19.25;15.50;;;;;25.87;33.20;100865.81;5033445;28;45385;-60
2023/06/14 09:04:24;;;;;;;;;18.00;14.75;;;;;25.90;32.88;100865.59;5049001;28;45408;-58
2023/06/14 09:06:52;;;;;;;;;14.25;12.25;;;;;25.95;32.22;100866.09;5033992;28;45500;-58
2023/06/14 09:09:20;;;;;;;;;15.75;14.75;;;;;25.98;32.22;100864.16;5050081;28;45470;-59
2023/06/14 09:11:46;;;;;;;;;15.00;14.75;;;;;26.03;32.02;100872.72;5045011;28;45289;-59
2023/06/14 09:14:11;;;;;;;;;19.75;17.25;;;;;26.06;32.34;100865.31;5038566;28;45302;-59
2023/06/14 09:16:36;;;;;;;;;15.25;13.00;;;;;26.12;32.36;100874.72;5052016;28;45632;-59
2023/06/14 09:19:02;;;;;;;;;13.50;13.00;;;;;26.18;31.75;100868.00;5051594;28;45562;-59
2023/06/14 09:21:27;;;;;;;;;15.75;14.00;;;;;26.21;32.12;100870.44;5048626;28;45303;-59
2023/06/14 09:23:53;;;;;;;;;13.50;13.50;;;;;26.27;31.55;100878.06;5050468;28;45285;-59
2023/06/14 09:26:20;;;;;;;;;13.75;12.25;;;;;26.33;31.51;100871.34;5023950;28;45491;-59
2023/06/14 09:28:47;;;;;;;;;12.75;12.75;;;;;26.38;31.72;100874.53;5053361;28;45399;-60
2023/06/14 09:31:15;;;;;;;;;14.50;13.00;;;;;26.43;31.31;100873.16;5048404;28;45372;-59
2023/06/14 09:33:47;;;;;;;;;15.00;15.00;;;;;26.46;31.54;100866.66;5030801;28;45357;-59
2023/06/14 09:36:22;;;;;;;;;13.75;12.00;;;;;26.55;31.54;100875.84;5041725;28;45359;-59
2023/06/14 09:38:57;;;;;;;;;19.50;15.00;;;;;26.60;30.69;100869.13;5054958;28;45273;-59
2023/06/14 09:41:40;;;;;;;;;13.00;12.50;;;;;26.67;31.31;100879.44;5050321;28;46335;-59
2023/06/14 09:44:09;;;;;;;;;16.25;14.00;;;;;26.71;30.53;100872.81;5042658;28;45392;-60
2023/06/14 09:46:36;;;;;;;;;12.00;10.00;;;;;26.77;30.96;100875.88;5041569;28;45392;-59
2023/06/14 09:49:02;;;;;;;;;15.75;13.75;;;;;26.81;30.38;100881.88;5054636;28;45475;-59
2023/06/14 09:51:30;;;;;;;;;13.00;13.00;;;;;26.88;30.80;100885.81;5023401;28;45957;-59
2023/06/14 09:54:00;;;;;;;;;13.50;11.50;;;;;26.93;30.47;100875.50;5054461;28;45340;-60
2023/06/14 09:56:29;;;;;;;;;14.75;12.00;;;;;27.01;30.47;100880.25;5036488;28;45462;-59
2023/06/14 09:58:56;;;;;;;;;18.25;16.25;;;;;27.06;29.97;100879.91;5048487;28;45708;-59
2023/06/14 10:01:24;;;;;;;;;13.50;12.50;;;;;27.14;30.15;100882.78;5016739;28;47987;-59
2023/06/14 10:03:56;;;;;;;;;15.00;13.50;;;;;27.17;30.11;100887.97;5046657;28;45321;-59
2023/06/14 10:06:24;;;;;;;;;16.50;16.50;;;;;27.23;30.32;100884.75;5040262;28;45461;-59
2023/06/14 10:08:52;;;;;;;;;14.00;13.50;;;;;27.30;29.99;100886.94;5048415;28;45321;-59
2023/06/14 10:11:18;;;;;;;;;15.50;15.00;;;;;27.38;29.90;100887.16;5047366;28;46182;-60
2023/06/14 10:13:43;;;;;;;;;16.25;13.50;;;;;27.45;29.96;100893.78;5044581;28;45456;-59
2023/06/14 10:16:52;;;;;;;;;16.00;13.00;;;;;27.53;30.24;100891.31;5054734;28;45332;-58
2023/06/14 10:19:42;;;;;;;;;16.50;15.00;;;;;27.62;30.14;100888.81;5014876;28;45539;-59
2023/06/14 10:22:14;;;;;;;;;16.75;16.00;;;;;27.66;30.20;100887.56;5051274;28;46085;-59
2023/06/14 10:24:44;;;;;;;;;14.50;13.50;;;;;27.76;29.50;100890.34;5047690;28;45530;-59
2023/06/14 10:27:13;;;;;;;;;15.75;15.00;;;;;27.86;29.76;100889.44;5049531;28;45352;-60
2023/06/14 10:29:54;;;;;;;;;13.50;13.25;;;;;27.96;29.67;100881.41;5053441;28;45510;-61
2023/06/14 10:32:21;;;;;;;;;19.00;15.25;;;;;28.05;29.75;100890.59;5053689;28;46325;-62
2023/06/14 10:34:53;;;;;;;;;17.50;17.25;;;;;28.17;30.12;100883.28;5048304;28;45339;-62
2023/06/14 10:37:19;;;;;;;;;20.75;20.75;;;;;28.33;30.35;100886.34;5047540;28;45513;-62
2023/06/14 10:39:46;;;;;;;;;35.25;31.00;;;;;28.54;30.24;100875.50;5051901;28;45396;-62
2023/06/14 10:42:12;;;;;;;;;23.50;22.00;;;;;28.85;30.34;100889.03;5053851;28;45335;-62
2023/06/14 10:44:46;;;;;;;;;27.00;23.50;;;;;29.24;30.50;100881.97;5040209;28;45416;-63
2023/06/14 10:47:37;;;;;;;;;22.75;21.50;;;;;29.70;30.61;100883.16;5044257;28;46200;-62
2023/06/14 10:50:10;;;;;;;;;17.00;16.50;;;;;30.22;30.61;100887.41;5045931;28;45242;-64
2023/06/14 10:52:41;;;;;;;;;15.50;15.50;;;;;30.71;30.69;100881.81;5051501;28;45456;-63
2023/06/14 10:55:21;;;;;;;;;16.25;15.50;;;;;31.21;30.87;100870.53;5053676;28;45378;-62
2023/06/14 10:57:58;;;;;;;;;15.00;14.00;;;;;31.77;29.83;100871.25;5022943;28;45408;-63
2023/06/14 11:00:26;;;;;;;;;13.50;13.25;;;;;32.28;30.76;100878.75;5049345;28;45865;-62
2023/06/14 11:03:10;;;;;;;;;15.25;15.25;;;;;32.79;29.92;100881.56;5031844;28;45586;-63
2023/06/14 11:05:55;;;;;;;;;24.75;23.00;;;;;33.32;30.01;100882.25;5026515;28;45347;-64
2023/06/14 11:08:24;;;;;;;;;17.00;16.00;;;;;33.80;29.69;100887.91;5040907;28;45298;-62